Time;durP1;ratioP1;P1;durP2;ratioP2;P2;SDS_P1;SDS_P2;PMS_P1;PMS_P2;Temp;Humidity;BMP_temperature;BMP_pressure;BME280_temperature;BME280_humidity;BME280_pressure;Samples;Min_cycle;Max_cycle;Signal;HPM_P1;HPM_P2
2023/01/11 00:00:24;;;;;;;1.97;0.97;;;8.80;99.90;;;;;;7395885;19;20383;-74
2023/01/11 00:02:57;;;;;;;1.77;0.63;;;8.90;99.90;;;;;;7391875;19;20138;-74
2023/01/11 00:05:23;;;;;;;2.73;0.93;;;8.90;99.90;;;;;;7393952;19;20411;-73
2023/01/11 00:07:48;;;;;;;3.13;0.53;;;9.00;99.90;;;;;;7395337;19;20139;-73
2023/01/11 00:10:15;;;;;;;3.57;0.90;;;8.90;99.90;;;;;;7393928;19;20134;-74
2023/01/11 00:12:40;;;;;;;1.80;1.20;;;9.10;99.90;;;;;;7394994;19;20473;-73
2023/01/11 00:15:07;;;;;;;2.33;0.90;;;9.20;99.90;;;;;;7392191;19;20151;-74
2023/01/11 00:17:32;;;;;;;2.23;0.73;;;9.20;99.90;;;;;;7394024;19;20150;-72
2023/01/11 00:19:58;;;;;;;2.60;0.60;;;9.30;99.90;;;;;;7391191;19;20135;-73
2023/01/11 00:22:24;;;;;;;1.17;0.70;;;9.30;99.90;;;;;;7394333;19;20462;-74
2023/01/11 00:24:50;;;;;;;4.40;0.80;;;9.20;99.90;;;;;;7386068;19;20142;-74
2023/01/11 00:27:16;;;;;;;1.67;0.60;;;9.30;99.90;;;;;;7392831;19;20144;-73
2023/01/11 00:29:41;;;;;;;0.90;0.70;;;9.10;99.90;;;;;;7393770;19;20472;-72
2023/01/11 00:32:07;;;;;;;2.20;0.83;;;9.10;99.90;;;;;;7394547;19;20141;-73
2023/01/11 00:34:33;;;;;;;2.00;0.80;;;9.20;99.90;;;;;;7392907;19;20153;-74
2023/01/11 00:36:59;;;;;;;2.63;0.70;;;9.20;99.90;;;;;;7394248;19;20229;-73
2023/01/11 00:39:25;;;;;;;0.63;0.40;;;9.20;99.90;;;;;;7393928;19;20206;-74
2023/01/11 00:50:03;;;;;;;1.53;0.70;;;9.00;99.90;;;;;;7393748;19;20135;-74
2023/01/11 00:52:29;;;;;;;0.50;0.47;;;9.10;99.90;;;;;;7392535;19;20138;-73
2023/01/11 00:54:55;;;;;;;3.10;0.80;;;9.20;99.90;;;;;;7393263;19;20150;-73
2023/01/11 00:57:21;;;;;;;1.37;0.80;;;9.00;99.90;;;;;;7392218;19;20232;-74
2023/01/11 00:59:47;;;;;;;1.80;0.87;;;9.00;99.90;;;;;;7394165;19;20170;-74
2023/01/11 01:02:12;;;;;;;0.83;0.67;;;9.30;99.90;;;;;;7392412;19;20138;-74
2023/01/11 01:04:39;;;;;;;0.77;0.70;;;9.40;99.90;;;;;;7387864;19;20140;-74
2023/01/11 01:07:05;;;;;;;0.83;0.57;;;9.40;99.90;;;;;;7392569;19;20591;-73
2023/01/11 01:09:31;;;;;;;3.83;0.77;;;9.30;99.90;;;;;;7391865;19;20466;-72
2023/01/11 01:11:57;;;;;;;1.17;0.47;;;9.40;99.90;;;;;;7390335;19;20162;-74
2023/01/11 01:14:27;;;;;;;1.20;0.60;;;9.30;99.90;;;;;;7391055;19;20167;-73
2023/01/11 01:16:55;;;;;;;3.23;0.70;;;9.10;99.90;;;;;;7388470;19;21212;-75
2023/01/11 01:19:22;;;;;;;1.53;0.50;;;9.10;99.90;;;;;;7391630;19;20153;-73
2023/01/11 01:21:49;;;;;;;0.60;0.50;;;9.20;99.90;;;;;;7392365;19;20142;-74
2023/01/11 01:24:15;;;;;;;1.50;0.80;;;9.40;99.90;;;;;;7388424;19;20559;-73
2023/01/11 01:26:41;;;;;;;0.63;0.50;;;9.30;99.90;;;;;;7391130;19;20450;-74
2023/01/11 01:29:07;;;;;;;0.80;0.60;;;9.30;99.90;;;;;;7391563;19;20157;-73
2023/01/11 01:31:33;;;;;;;1.13;0.40;;;9.30;99.90;;;;;;7390836;19;20131;-73
2023/01/11 01:33:59;;;;;;;1.27;0.80;;;9.20;99.90;;;;;;7389965;19;20166;-74
2023/01/11 01:36:25;;;;;;;0.70;0.43;;;9.40;99.90;;;;;;7393052;19;20149;-74
2023/01/11 01:38:51;;;;;;;0.50;0.50;;;9.40;99.90;;;;;;7394688;19;20155;-74
2023/01/11 01:41:16;;;;;;;2.37;0.60;;;9.50;99.90;;;;;;7391933;19;20146;-76
2023/01/11 01:43:52;;;;;;;0.60;0.43;;;9.50;99.90;;;;;;7389677;19;20158;-76
2023/01/11 01:46:20;;;;;;;1.00;0.67;;;9.40;99.90;;;;;;7391770;19;20642;-74
2023/01/11 01:48:52;;;;;;;4.60;0.60;;;9.50;99.90;;;;;;7391784;19;20143;-72
2023/01/11 01:51:27;;;;;;;2.30;0.70;;;9.60;99.90;;;;;;7392846;19;20139;-74
2023/01/11 01:53:57;;;;;;;1.00;0.50;;;9.70;99.90;;;;;;7388861;19;20158;-73
2023/01/11 01:56:29;;;;;;;0.90;0.60;;;9.70;99.90;;;;;;7390569;19;20158;-74
2023/01/11 01:59:00;;;;;;;0.53;0.50;;;9.60;99.90;;;;;;7389616;19;20139;-74
2023/01/11 02:04:35;;;;;;;3.60;0.70;;;9.40;99.90;;;;;;7390498;19;20340;-80
2023/01/11 02:07:09;;;;;;;2.10;0.53;;;9.50;99.90;;;;;;7392149;19;20147;-79
2023/01/11 02:09:42;;;;;;;1.47;0.50;;;9.50;99.90;;;;;;7389625;19;20133;-78
2023/01/11 02:12:08;;;;;;;0.93;0.60;;;9.60;99.90;;;;;;7392903;19;20148;-80
2023/01/11 02:14:37;;;;;;;0.50;0.50;;;9.60;99.90;;;;;;7390101;19;20164;-79
2023/01/11 02:17:02;;;;;;;2.80;0.63;;;9.50;99.90;;;;;;7390698;19;20143;-80
2023/01/11 02:20:04;;;;;;;0.73;0.30;;;9.60;99.90;;;;;;7391488;19;20635;-79
2023/01/11 02:22:57;;;;;;;1.50;0.60;;;9.70;99.90;;;;;;7380345;19;20142;-80
2023/01/11 02:25:48;;;;;;;0.70;0.50;;;9.70;99.90;;;;;;7392539;19;20733;-78
2023/01/11 02:28:22;;;;;;;0.60;0.40;;;9.70;99.90;;;;;;7389184;19;20138;-78
2023/01/11 02:31:12;;;;;;;2.70;0.80;;;9.60;99.90;;;;;;7393054;19;20123;-80
2023/01/11 02:33:56;;;;;;;4.20;0.70;;;9.50;99.90;;;;;;7387345;19;20481;-79
2023/01/11 02:36:37;;;;;;;0.60;0.53;;;9.30;99.90;;;;;;7392957;19;20134;-79
2023/01/11 02:39:34;;;;;;;1.20;0.67;;;9.50;99.90;;;;;;7390213;19;20210;-78
2023/01/11 02:45:11;;;;;;;0.40;0.40;;;9.40;99.90;;;;;;7382285;19;20131;-79
2023/01/11 02:48:00;;;;;;;2.03;0.70;;;9.60;99.90;;;;;;7391387;19;20146;-78
2023/01/11 02:50:38;;;;;;;0.50;0.50;;;9.40;99.90;;;;;;7387912;19;20142;-79
2023/01/11 02:53:35;;;;;;;3.27;0.60;;;9.30;99.90;;;;;;7391775;19;20135;-80
2023/01/11 02:56:05;;;;;;;1.60;0.80;;;9.30;99.90;;;;;;7391289;19;20215;-78
2023/01/11 02:58:35;;;;;;;0.73;0.50;;;9.30;99.90;;;;;;7391174;19;20167;-80
2023/01/11 03:01:02;;;;;;;0.90;0.50;;;9.40;99.90;;;;;;7390355;19;20147;-79
2023/01/11 03:03:29;;;;;;;3.03;0.47;;;9.40;99.90;;;;;;7385291;19;20135;-80
2023/01/11 03:06:19;;;;;;;0.93;0.63;;;9.40;99.90;;;;;;7389078;19;20210;-80
2023/01/11 03:09:09;;;;;;;0.90;0.40;;;9.50;99.90;;;;;;7389680;19;20175;-79
2023/01/11 03:14:36;;;;;;;1.10;0.77;;;9.70;99.90;;;;;;7384831;19;20170;-80
2023/01/11 03:17:35;;;;;;;1.63;0.60;;;9.60;99.90;;;;;;7391370;19;20134;-80
2023/01/11 03:20:20;;;;;;;3.17;0.63;;;9.60;99.90;;;;;;7387460;19;20139;-80
2023/01/11 03:23:06;;;;;;;0.40;0.40;;;9.50;99.90;;;;;;7388030;19;20582;-81
2023/01/11 03:25:56;;;;;;;1.67;0.50;;;9.60;99.90;;;;;;7391063;19;20135;-80
2023/01/11 03:28:38;;;;;;;0.80;0.60;;;9.70;99.90;;;;;;7387395;19;20146;-80
2023/01/11 03:31:14;;;;;;;0.63;0.33;;;9.70;99.90;;;;;;7389334;19;20143;-78
2023/01/11 03:33:53;;;;;;;1.13;0.50;;;9.80;99.90;;;;;;7391220;19;20174;-79
2023/01/11 03:36:36;;;;;;;0.40;0.40;;;9.80;99.90;;;;;;7394012;19;20150;-79
2023/01/11 03:39:28;;;;;;;0.70;0.50;;;9.80;99.90;;;;;;7396401;19;20139;-81
2023/01/11 03:41:58;;;;;;;0.60;0.60;;;9.80;99.90;;;;;;7393177;19;20479;-79
2023/01/11 03:44:30;;;;;;;0.37;0.37;;;9.60;99.90;;;;;;7393478;19;20146;-80
2023/01/11 03:47:02;;;;;;;0.57;0.57;;;9.70;99.90;;;;;;7392462;19;20168;-80
2023/01/11 03:49:37;;;;;;;1.20;0.50;;;9.60;99.90;;;;;;7395652;19;20154;-82
2023/01/11 03:52:06;;;;;;;0.40;0.40;;;9.60;99.90;;;;;;7397156;19;20134;-78
2023/01/11 03:54:33;;;;;;;0.43;0.30;;;9.60;99.90;;;;;;7392110;19;20158;-80
2023/01/11 03:57:24;;;;;;;0.50;0.40;;;9.70;99.90;;;;;;7397173;19;20139;-79
2023/01/11 03:59:50;;;;;;;0.53;0.30;;;9.70;99.90;;;;;;7396631;19;20139;-80
2023/01/11 04:02:26;;;;;;;3.57;1.30;;;9.70;99.90;;;;;;7395882;19;20214;-81
2023/01/11 04:04:52;;;;;;;0.63;0.40;;;9.70;99.90;;;;;;7394810;19;20209;-79
2023/01/11 04:07:18;;;;;;;1.53;0.30;;;9.60;99.90;;;;;;7395566;19;20142;-81
2023/01/11 04:09:44;;;;;;;0.70;0.50;;;9.70;99.90;;;;;;7393992;19;20491;-79
2023/01/11 04:12:10;;;;;;;0.43;0.40;;;9.90;99.90;;;;;;7394900;19;20153;-80
2023/01/11 04:14:36;;;;;;;1.53;0.50;;;9.90;99.90;;;;;;7394047;19;20206;-80
2023/01/11 04:17:03;;;;;;;0.53;0.40;;;10.00;99.90;;;;;;7391221;19;20151;-80
2023/01/11 04:19:29;;;;;;;4.63;0.40;;;10.00;99.90;;;;;;7393231;19;20239;-81
2023/01/11 04:21:55;;;;;;;6.10;0.53;;;9.90;99.90;;;;;;7391133;19;20162;-80
2023/01/11 04:24:20;;;;;;;1.03;0.30;;;9.90;99.90;;;;;;7392180;19;20490;-80
2023/01/11 04:26:46;;;;;;;0.40;0.40;;;9.80;99.90;;;;;;7397156;19;20131;-82
2023/01/11 04:29:12;;;;;;;0.63;0.40;;;10.00;99.90;;;;;;7394353;19;20134;-80
2023/01/11 04:31:38;;;;;;;0.60;0.37;;;10.00;99.90;;;;;;7395125;19;20135;-79
2023/01/11 04:34:03;;;;;;;1.30;0.40;;;10.00;99.90;;;;;;7392833;19;20158;-81
2023/01/11 04:36:30;;;;;;;0.63;0.30;;;10.10;99.90;;;;;;7394863;19;20673;-80
2023/01/11 04:38:59;;;;;;;0.73;0.30;;;10.00;99.90;;;;;;7393455;19;20618;-79
2023/01/11 04:44:09;;;;;;;0.40;0.40;;;10.10;99.90;;;;;;7394033;19;20158;-80
2023/01/11 04:46:35;;;;;;;0.30;0.30;;;10.10;99.90;;;;;;7395937;19;20138;-82
2023/01/11 04:49:01;;;;;;;0.67;0.50;;;10.00;99.90;;;;;;7395159;19;20135;-80
2023/01/11 04:51:27;;;;;;;0.83;0.70;;;9.90;99.90;;;;;;7386675;19;20256;-80
2023/01/11 04:53:53;;;;;;;1.07;0.50;;;9.90;99.90;;;;;;7395896;19;20158;-81
2023/01/11 04:56:19;;;;;;;1.50;0.83;;;9.80;99.90;;;;;;7396749;19;20138;-81
2023/01/11 04:58:45;;;;;;;0.30;0.30;;;9.80;99.90;;;;;;7394989;19;20142;-77
2023/01/11 05:01:15;;;;;;;0.87;0.30;;;9.80;99.90;;;;;;7394682;19;20164;-79
2023/01/11 05:03:41;;;;;;;0.40;0.40;;;9.90;99.90;;;;;;7394248;19;20618;-79
2023/01/11 05:06:07;;;;;;;0.50;0.50;;;9.90;99.90;;;;;;7393268;19;20153;-80
2023/01/11 05:08:34;;;;;;;0.50;0.40;;;10.00;99.90;;;;;;7394593;19;20151;-80
2023/01/11 05:11:02;;;;;;;1.23;0.50;;;9.90;99.90;;;;;;7389923;19;20842;-80
2023/01/11 05:13:41;;;;;;;0.33;0.33;;;10.20;99.90;;;;;;7392737;19;20238;-78
2023/01/11 05:16:22;;;;;;;0.30;0.30;;;10.20;99.90;;;;;;7396435;19;20234;-79
2023/01/11 05:18:52;;;;;;;1.43;0.37;;;10.20;99.90;;;;;;7394525;19;20185;-80
2023/01/11 05:21:21;;;;;;;0.50;0.40;;;10.20;99.90;;;;;;7393842;19;20143;-80
2023/01/11 05:23:48;;;;;;;0.40;0.40;;;10.10;99.90;;;;;;7390854;19;20260;-79
2023/01/11 05:26:19;;;;;;;1.77;0.50;;;9.90;99.90;;;;;;7392674;19;20131;-80
2023/01/11 05:28:46;;;;;;;1.07;0.40;;;9.90;99.90;;;;;;7391277;19;20146;-79
2023/01/11 05:31:12;;;;;;;1.00;0.47;;;10.00;99.90;;;;;;7392587;19;20140;-80
2023/01/11 05:33:37;;;;;;;0.40;0.40;;;10.00;99.90;;;;;;7390145;19;20177;-81
2023/01/11 05:36:07;;;;;;;2.47;0.60;;;9.90;99.90;;;;;;7391733;19;20209;-80
2023/01/11 05:38:34;;;;;;;0.50;0.50;;;9.90;99.90;;;;;;7393356;19;20138;-80
2023/01/11 05:41:02;;;;;;;1.63;0.50;;;9.90;99.90;;;;;;7391591;19;20615;-80
2023/01/11 05:43:29;;;;;;;0.60;0.50;;;9.90;99.90;;;;;;7390346;19;20960;-79
2023/01/11 05:45:56;;;;;;;1.47;0.40;;;10.00;99.90;;;;;;7392888;19;20139;-79
2023/01/11 05:48:23;;;;;;;0.80;0.60;;;9.90;99.90;;;;;;7393574;19;20137;-80
2023/01/11 05:50:53;;;;;;;1.57;0.90;;;9.90;99.90;;;;;;7392402;19;20597;-79
2023/01/11 05:53:22;;;;;;;0.70;0.70;;;9.80;99.90;;;;;;7391029;19;20566;-80
2023/01/11 05:55:52;;;;;;;0.50;0.50;;;9.60;99.90;;;;;;7390924;19;20202;-82
2023/01/11 05:58:18;;;;;;;2.17;0.70;;;9.60;99.90;;;;;;7394020;19;20202;-81
2023/01/11 06:00:48;;;;;;;0.70;0.60;;;9.80;99.90;;;;;;7393077;19;20550;-82
2023/01/11 06:03:13;;;;;;;1.93;1.17;;;9.70;99.90;;;;;;7387608;19;20145;-78
2023/01/11 06:05:39;;;;;;;1.13;0.80;;;9.50;99.90;;;;;;7390914;19;20142;-79
2023/01/11 06:08:05;;;;;;;3.37;0.60;;;9.50;99.90;;;;;;7390401;19;20142;-80
2023/01/11 06:10:31;;;;;;;1.00;0.60;;;9.60;99.90;;;;;;7391087;19;20150;-81
2023/01/11 06:13:25;;;;;;;0.60;0.60;;;9.70;99.90;;;;;;7390106;19;20635;-82
2023/01/11 06:15:42;;;;;;;1.70;0.73;;;9.50;99.90;;;;;;7391931;19;20143;-80
2023/01/11 06:18:08;;;;;;;0.40;0.40;;;9.70;99.90;;;;;;7390941;19;20202;-80
2023/01/11 06:20:34;;;;;;;0.93;0.50;;;9.70;99.90;;;;;;7394854;19;20148;-80
2023/01/11 06:23:00;;;;;;;0.70;0.50;;;9.80;99.90;;;;;;7385435;19;20134;-81
2023/01/11 06:25:26;;;;;;;1.63;0.60;;;9.70;99.90;;;;;;7392148;19;20130;-79
2023/01/11 06:27:55;;;;;;;0.83;0.60;;;10.00;99.90;;;;;;7391874;19;20130;-80
2023/01/11 06:30:24;;;;;;;0.40;0.30;;;9.90;99.90;;;;;;7390876;19;20624;-80
2023/01/11 06:32:53;;;;;;;1.73;0.50;;;9.80;99.90;;;;;;7389928;19;20150;-80
2023/01/11 06:35:19;;;;;;;1.87;0.50;;;9.80;99.90;;;;;;7391348;19;20855;-80
2023/01/11 06:37:46;;;;;;;0.40;0.40;;;9.80;99.90;;;;;;7387067;19;20126;-80
2023/01/11 06:40:12;;;;;;;2.43;0.50;;;9.90;99.90;;;;;;7384380;19;20157;-80
2023/01/11 06:42:38;;;;;;;2.73;0.70;;;9.80;99.90;;;;;;7388199;19;20147;-81
2023/01/11 06:45:04;;;;;;;2.73;1.10;;;9.90;99.90;;;;;;7383731;19;20663;-81
2023/01/11 06:47:30;;;;;;;1.23;0.73;;;9.90;99.90;;;;;;7390440;19;20202;-81
2023/01/11 06:49:56;;;;;;;0.50;0.50;;;9.90;99.90;;;;;;7391198;19;20135;-80
2023/01/11 06:52:21;;;;;;;0.70;0.50;;;9.90;99.90;;;;;;7396659;19;20607;-79
2023/01/11 06:54:47;;;;;;;0.77;0.50;;;10.00;99.90;;;;;;7389567;19;20178;-80
2023/01/11 06:57:13;;;;;;;4.53;0.80;;;10.00;99.90;;;;;;7390519;19;20187;-80
2023/01/11 06:59:40;;;;;;;1.10;0.73;;;10.00;99.90;;;;;;7391916;19;20139;-81
2023/01/11 07:02:08;;;;;;;2.00;0.50;;;10.20;99.90;;;;;;7391985;19;20135;-81
2023/01/11 07:04:34;;;;;;;1.10;0.60;;;10.30;99.90;;;;;;7392060;19;20138;-84
2023/01/11 07:06:59;;;;;;;1.20;0.73;;;10.20;99.90;;;;;;7393496;19;20134;-81
2023/01/11 07:09:25;;;;;;;1.20;0.67;;;10.30;99.90;;;;;;7397032;19;20182;-81
2023/01/11 07:11:51;;;;;;;1.60;0.60;;;10.30;99.90;;;;;;7400742;19;20254;-83
2023/01/11 07:14:20;;;;;;;1.00;0.80;;;10.40;99.90;;;;;;7399293;19;20162;-82
2023/01/11 07:16:46;;;;;;;1.23;0.70;;;10.40;99.90;;;;;;7405301;19;20194;-81
2023/01/11 07:19:12;;;;;;;1.87;0.90;;;10.20;99.90;;;;;;7395755;19;20790;-80
2023/01/11 07:21:41;;;;;;;1.33;0.90;;;10.40;99.90;;;;;;7398490;19;20142;-80
2023/01/11 07:24:07;;;;;;;1.17;0.80;;;10.30;99.90;;;;;;7399642;19;20127;-80
2023/01/11 07:26:40;;;;;;;0.80;0.70;;;10.30;99.90;;;;;;7398204;19;20130;-80
2023/01/11 07:29:07;;;;;;;1.77;1.47;;;10.10;99.90;;;;;;7395127;19;20150;-79
2023/01/11 07:31:33;;;;;;;2.80;0.93;;;10.20;99.90;;;;;;7396831;19;20134;-79
2023/01/11 07:33:58;;;;;;;1.50;0.80;;;10.30;99.90;;;;;;7395336;19;20147;-78
2023/01/11 07:36:24;;;;;;;1.60;0.97;;;10.10;99.90;;;;;;7395079;19;20563;-78
2023/01/11 07:38:50;;;;;;;1.40;1.00;;;10.20;99.90;;;;;;7397218;19;20139;-78
2023/01/11 07:44:05;;;;;;;4.03;0.90;;;10.40;99.90;;;;;;7398056;19;20195;-80
2023/01/11 07:46:32;;;;;;;0.70;0.70;;;10.50;99.90;;;;;;7396569;19;20126;-79
2023/01/11 07:49:00;;;;;;;1.40;0.97;;;10.30;99.90;;;;;;7400605;19;20387;-80
2023/01/11 07:51:26;;;;;;;2.93;1.20;;;10.60;99.90;;;;;;7401598;19;20160;-79
2023/01/11 07:53:52;;;;;;;3.27;1.57;;;10.60;99.90;;;;;;7397982;19;20142;-79
2023/01/11 07:56:17;;;;;;;2.87;1.20;;;10.40;99.90;;;;;;7402782;19;20135;-78
2023/01/11 07:58:43;;;;;;;2.90;1.27;;;10.50;99.90;;;;;;7409810;19;20604;-79
2023/01/11 08:01:09;;;;;;;3.47;1.53;;;10.40;99.90;;;;;;7402409;19;20533;-80
2023/01/11 08:03:35;;;;;;;3.63;1.87;;;10.20;99.90;;;;;;7403260;19;20140;-82
2023/01/11 08:06:00;;;;;;;3.40;1.40;;;10.20;99.90;;;;;;7398643;19;20593;-80
2023/01/11 08:08:26;;;;;;;1.97;1.20;;;10.40;99.90;;;;;;7404125;19;20126;-80
2023/01/11 08:16:22;;;;;;;1.83;1.40;;;10.40;99.90;;;;;;7406708;19;20143;-81
2023/01/11 08:18:54;;;;;;;2.17;1.07;;;10.50;99.90;;;;;;7407840;19;20135;-80
2023/01/11 08:21:20;;;;;;;2.17;0.90;;;10.50;99.90;;;;;;7405543;19;20507;-79
2023/01/11 08:23:46;;;;;;;2.30;0.90;;;10.40;99.90;;;;;;7404872;19;20171;-79
2023/01/11 08:26:15;;;;;;;1.87;1.40;;;10.50;99.90;;;;;;7404392;19;20142;-80
2023/01/11 08:28:42;;;;;;;3.53;0.80;;;10.70;99.90;;;;;;7401179;19;20552;-81
2023/01/11 08:31:10;;;;;;;1.90;1.10;;;10.60;99.90;;;;;;7407678;19;20250;-79
2023/01/11 08:33:36;;;;;;;3.87;2.20;;;10.60;99.90;;;;;;7408911;19;20158;-79
2023/01/11 08:36:08;;;;;;;2.97;1.37;;;10.60;99.90;;;;;;7401194;19;20142;-80
2023/01/11 08:38:34;;;;;;;1.70;0.90;;;10.60;99.90;;;;;;7402922;19;20474;-79
2023/01/11 08:41:00;;;;;;;1.70;0.83;;;10.70;99.90;;;;;;7405335;19;20138;-79
2023/01/11 08:43:30;;;;;;;2.70;1.70;;;10.70;99.90;;;;;;7404245;19;20252;-79
2023/01/11 08:45:56;;;;;;;0.80;0.80;;;10.80;99.90;;;;;;7402982;19;20648;-81
2023/01/11 08:48:22;;;;;;;1.73;1.17;;;10.80;99.90;;;;;;7396182;19;20591;-80
2023/01/11 08:50:48;;;;;;;1.10;0.90;;;10.80;99.90;;;;;;7397161;19;20150;-79
2023/01/11 08:53:14;;;;;;;1.30;0.70;;;10.80;99.90;;;;;;7394894;19;20146;-81
2023/01/11 08:55:43;;;;;;;2.10;1.30;;;10.90;99.90;;;;;;7392266;19;20962;-81
2023/01/11 08:58:09;;;;;;;1.13;0.93;;;10.90;99.90;;;;;;7404599;19;20138;-80
2023/01/11 09:00:35;;;;;;;3.93;0.77;;;11.00;99.90;;;;;;7399154;19;20154;-81
2023/01/11 09:03:01;;;;;;;1.07;0.83;;;11.10;99.90;;;;;;7397253;19;20620;-79
2023/01/11 09:05:27;;;;;;;1.03;0.50;;;11.10;99.90;;;;;;7402831;19;20601;-80
2023/01/11 09:07:54;;;;;;;0.80;0.60;;;11.00;99.90;;;;;;7399101;19;20141;-80
2023/01/11 09:10:20;;;;;;;6.45;3.28;;;11.00;99.90;;;;;;7400685;19;20130;-79
2023/01/11 09:12:46;;;;;;;1.45;0.90;;;11.00;99.90;;;;;;7396072;19;20130;-80
2023/01/11 09:15:11;;;;;;;1.17;0.60;;;11.00;99.90;;;;;;7400608;19;20142;-80
2023/01/11 09:17:37;;;;;;;0.87;0.70;;;11.10;99.90;;;;;;7405823;19;20138;-80
2023/01/11 09:20:03;;;;;;;0.63;0.60;;;11.10;99.90;;;;;;7398434;19;20186;-80
2023/01/11 09:22:29;;;;;;;1.38;0.57;;;11.10;99.90;;;;;;7400824;19;20805;-80
2023/01/11 09:24:57;;;;;;;1.00;0.90;;;11.10;99.90;;;;;;7401285;19;20131;-77
2023/01/11 09:27:23;;;;;;;1.77;1.37;;;11.10;99.90;;;;;;7406120;19;20463;-80
2023/01/11 09:29:49;;;;;;;0.53;0.50;;;11.20;99.90;;;;;;7401582;19;20622;-79
2023/01/11 09:32:15;;;;;;;1.55;0.40;;;11.20;99.90;;;;;;7400844;19;20150;-79
2023/01/11 09:34:42;;;;;;;0.60;0.60;;;11.20;99.90;;;;;;7398392;19;20145;-80
2023/01/11 09:37:13;;;;;;;0.90;0.80;;;11.30;99.90;;;;;;7399022;19;20488;-79
2023/01/11 09:39:40;;;;;;;2.37;1.30;;;11.40;99.90;;;;;;7398652;19;20133;-82
2023/01/11 09:42:19;;;;;;;2.83;1.30;;;11.50;99.90;;;;;;7400908;19;20141;-78
2023/01/11 09:44:56;;;;;;;1.30;0.70;;;11.40;99.90;;;;;;7395509;19;20610;-78
2023/01/11 09:47:35;;;;;;;0.80;0.50;;;11.40;99.90;;;;;;7399297;19;20150;-78
2023/01/11 09:50:06;;;;;;;1.47;0.60;;;11.40;99.90;;;;;;7401269;19;20135;-80
2023/01/11 09:52:39;;;;;;;1.27;0.90;;;11.30;99.90;;;;;;7404171;19;20135;-80
2023/01/11 09:55:14;;;;;;;1.17;0.50;;;11.30;99.90;;;;;;7402679;19;20157;-79
2023/01/11 09:58:15;;;;;;;0.93;0.80;;;11.30;99.90;;;;;;7402006;19;20259;-79
2023/01/11 10:01:09;;;;;;;2.20;1.00;;;11.30;99.90;;;;;;7401020;19;20189;-78
2023/01/11 10:03:57;;;;;;;3.93;1.63;;;11.40;99.90;;;;;;7402418;19;20655;-82
2023/01/11 10:07:01;;;;;;;2.67;1.50;;;11.40;99.90;;;;;;7393152;19;20148;-78
2023/01/11 10:09:38;;;;;;;2.58;1.80;;;11.30;99.90;;;;;;7398132;19;20130;-78
2023/01/11 10:12:30;;;;;;;4.53;3.20;;;11.40;99.90;;;;;;7399377;19;20138;-78
2023/01/11 10:15:14;;;;;;;4.70;1.63;;;11.40;99.90;;;;;;7396721;19;20135;-78
2023/01/11 10:18:28;;;;;;;4.17;2.00;;;11.50;99.90;;;;;;7410910;19;20130;-80
2023/01/11 10:21:15;;;;;;;3.40;1.30;;;11.50;99.90;;;;;;7403515;19;20150;-78
2023/01/11 10:23:54;;;;;;;4.37;1.53;;;11.50;99.90;;;;;;7397562;19;20134;-77
2023/01/11 10:26:31;;;;;;;1.63;1.38;;;11.60;99.90;;;;;;7395340;19;20142;-79
2023/01/11 10:29:20;;;;;;;4.67;1.10;;;11.60;99.90;;;;;;7402049;19;20138;-81
2023/01/11 10:37:48;;;;;;;3.07;1.00;;;11.60;99.90;;;;;;7405049;19;20153;-78
2023/01/11 10:43:21;;;;;;;1.27;0.90;;;11.70;99.90;;;;;;7394508;19;20185;-79
2023/01/11 10:46:09;;;;;;;2.43;1.40;;;11.70;99.90;;;;;;7401199;19;20131;-81
2023/01/11 10:48:38;;;;;;;1.90;1.10;;;11.90;99.90;;;;;;7401101;19;20154;-79
2023/01/11 10:51:10;;;;;;;1.80;0.97;;;11.80;99.90;;;;;;7400270;19;20158;-78
2023/01/11 10:53:58;;;;;;;1.37;0.70;;;11.70;99.90;;;;;;7396077;19;20187;-80
2023/01/11 10:56:53;;;;;;;3.33;1.63;;;11.70;99.90;;;;;;7410161;19;20166;-79
2023/01/11 10:59:28;;;;;;;2.50;0.90;;;11.80;99.90;;;;;;7406776;19;20206;-79
2023/01/11 11:02:05;;;;;;;2.20;0.93;;;11.80;99.90;;;;;;7401239;19;20144;-78
2023/01/11 11:04:36;;;;;;;5.00;1.30;;;11.80;99.90;;;;;;7398083;19;20135;-78
2023/01/11 11:07:31;;;;;;;4.73;1.67;;;11.80;99.90;;;;;;7405322;19;20146;-79
2023/01/11 11:10:05;;;;;;;4.33;1.60;;;11.80;99.90;;;;;;7403110;19;20139;-79
2023/01/11 11:12:36;;;;;;;2.72;1.45;;;11.80;99.90;;;;;;7409825;19;20145;-79
2023/01/11 11:15:22;;;;;;;2.50;1.17;;;11.90;99.90;;;;;;7405300;19;20165;-78
2023/01/11 11:17:50;;;;;;;1.77;1.03;;;11.90;99.90;;;;;;7405001;19;20131;-78
2023/01/11 11:20:21;;;;;;;3.00;2.03;;;11.90;99.90;;;;;;7406873;19;20395;-81
2023/01/11 11:22:52;;;;;;;1.23;0.87;;;11.90;99.90;;;;;;7404352;19;20166;-79
2023/01/11 11:25:38;;;;;;;1.47;0.80;;;12.00;99.90;;;;;;7404315;19;20158;-79
2023/01/11 11:28:22;;;;;;;1.30;0.73;;;12.00;99.90;;;;;;7396574;19;20135;-79
2023/01/11 11:30:51;;;;;;;1.40;0.55;;;11.90;99.90;;;;;;7399274;19;20135;-80
2023/01/11 11:33:23;;;;;;;2.60;0.80;;;12.00;99.90;;;;;;7401424;19;20555;-80
2023/01/11 11:36:01;;;;;;;0.73;0.52;;;11.90;99.90;;;;;;7395076;19;20243;-80
2023/01/11 11:38:29;;;;;;;0.73;0.60;;;11.90;99.90;;;;;;7393141;19;20157;-79
2023/01/11 11:41:03;;;;;;;0.70;0.63;;;12.00;99.90;;;;;;7393869;19;20139;-78
2023/01/11 11:43:31;;;;;;;1.65;1.05;;;12.10;99.90;;;;;;7393975;19;20118;-79
2023/01/11 11:45:59;;;;;;;1.73;0.83;;;12.10;99.90;;;;;;7401838;19;20176;-82
2023/01/11 11:48:27;;;;;;;0.97;0.60;;;12.00;99.90;;;;;;7397453;19;20612;-80
2023/01/11 11:50:57;;;;;;;1.03;0.70;;;12.00;99.90;;;;;;7396872;19;20227;-79
2023/01/11 11:53:22;;;;;;;2.20;0.80;;;12.00;99.90;;;;;;7395449;19;20139;-81
2023/01/11 11:55:51;;;;;;;3.78;1.58;;;12.00;99.90;;;;;;7410134;19;20138;-81
2023/01/11 11:58:21;;;;;;;1.63;1.00;;;11.90;99.90;;;;;;7399688;19;20605;-81
2023/01/11 12:00:48;;;;;;;2.95;1.20;;;11.90;99.90;;;;;;7412918;19;20134;-84
2023/01/11 12:03:30;;;;;;;2.47;1.00;;;12.00;99.90;;;;;;7398765;19;20150;-83
2023/01/11 12:06:02;;;;;;;2.37;1.27;;;11.90;99.90;;;;;;7395909;19;20883;-82
2023/01/11 12:08:31;;;;;;;3.27;1.70;;;11.80;99.90;;;;;;7395548;19;20560;-84
2023/01/11 12:11:00;;;;;;;1.90;0.70;;;11.90;99.90;;;;;;7395496;19;20559;-84
2023/01/11 12:13:38;;;;;;;4.97;0.82;;;12.00;99.90;;;;;;7393886;19;20144;-82
2023/01/11 12:16:17;;;;;;;1.92;0.77;;;12.10;99.90;;;;;;7402071;19;20134;-82
2023/01/11 12:18:43;;;;;;;2.75;1.00;;;12.10;99.90;;;;;;7405644;19;20134;-84
2023/01/11 12:21:22;;;;;;;1.10;0.80;;;12.00;99.90;;;;;;7406295;19;20155;-83
2023/01/11 12:24:16;;;;;;;3.07;0.90;;;12.00;99.90;;;;;;7393109;19;20134;-84
2023/01/11 12:27:06;;;;;;;0.90;0.60;;;12.00;99.90;;;;;;7396564;19;20142;-82
2023/01/11 12:30:07;;;;;;;2.40;1.00;;;12.00;99.90;;;;;;7393169;19;20138;-84
2023/01/11 12:32:51;;;;;;;0.87;0.70;;;12.00;99.90;;;;;;7399375;19;20206;-83
2023/01/11 12:35:48;;;;;;;1.90;0.70;;;12.10;99.90;;;;;;7409769;19;20899;-82
2023/01/11 12:38:36;;;;;;;1.52;0.70;;;12.10;99.90;;;;;;7404682;19;20193;-83
2023/01/11 12:41:42;;;;;;;2.07;1.17;;;12.10;99.90;;;;;;7398313;19;20190;-82
2023/01/11 12:44:28;;;;;;;1.53;0.97;;;12.00;99.90;;;;;;7397328;19;20147;-83
2023/01/11 12:47:13;;;;;;;1.52;1.05;;;11.90;99.90;;;;;;7396552;19;20790;-84
2023/01/11 12:50:11;;;;;;;0.60;0.60;;;12.00;99.90;;;;;;7400394;19;20659;-86
2023/01/11 12:52:50;;;;;;;2.08;1.05;;;12.00;99.90;;;;;;7394299;19;20145;-84
2023/01/11 12:55:19;;;;;;;0.70;0.60;;;12.00;99.90;;;;;;7404997;19;20139;-82
2023/01/11 12:58:09;;;;;;;2.25;1.00;;;12.00;99.90;;;;;;7405330;19;20131;-84
2023/01/11 13:00:58;;;;;;;1.00;0.73;;;12.30;99.90;;;;;;7395906;19;20138;-82
2023/01/11 13:04:11;;;;;;;1.55;0.88;;;12.00;99.90;;;;;;7400145;19;20130;-81
2023/01/11 13:06:56;;;;;;;0.88;0.70;;;12.10;99.90;;;;;;7400517;19;20190;-85
2023/01/11 13:09:44;;;;;;;0.87;0.60;;;12.00;99.90;;;;;;7398678;19;20135;-82
2023/01/11 13:12:44;;;;;;;1.13;0.98;;;11.90;99.90;;;;;;7393678;19;20982;-82
2023/01/11 13:15:29;;;;;;;4.40;1.50;;;11.90;99.90;;;;;;7402045;19;20153;-81
2023/01/11 13:18:17;;;;;;;1.50;1.10;;;12.00;99.90;;;;;;7411323;19;20146;-81
2023/01/11 13:21:14;;;;;;;1.80;0.90;;;12.00;99.90;;;;;;7403436;19;20193;-81
2023/01/11 13:23:52;;;;;;;4.20;1.30;;;11.90;99.90;;;;;;7405038;19;20505;-82
2023/01/11 13:26:41;;;;;;;3.67;1.40;;;11.90;99.90;;;;;;7399687;19;20149;-82
2023/01/11 13:29:27;;;;;;;2.97;1.60;;;11.90;99.90;;;;;;7395951;19;20174;-86
2023/01/11 13:31:56;;;;;;;2.73;1.20;;;12.00;99.90;;;;;;7395317;19;20150;-84
2023/01/11 13:34:25;;;;;;;1.80;1.23;;;12.20;99.90;;;;;;7388156;19;20151;-81
2023/01/11 13:37:05;;;;;;;1.38;0.88;;;11.90;99.90;;;;;;7385935;19;20255;-80
2023/01/11 13:39:44;;;;;;;1.35;1.13;;;11.80;99.90;;;;;;7392277;19;20168;-80
2023/01/11 13:42:20;;;;;;;2.05;1.00;;;11.90;99.90;;;;;;7393932;19;20149;-84
2023/01/11 13:45:08;;;;;;;2.70;0.90;;;11.90;99.90;;;;;;7395209;19;20180;-83
2023/01/11 13:47:43;;;;;;;1.98;0.90;;;11.90;99.90;;;;;;7395492;19;20142;-84
2023/01/11 13:50:24;;;;;;;1.23;0.60;;;11.90;99.90;;;;;;7395521;19;20232;-82
2023/01/11 13:53:14;;;;;;;1.33;0.80;;;11.80;99.90;;;;;;7395974;19;20146;-83
2023/01/11 13:56:14;;;;;;;1.23;0.80;;;11.80;99.90;;;;;;7396626;19;20143;-83